createdAt,value
2023-03-02T00:02:04.248Z,2.10
2023-03-02T00:04:45.108Z,2.00
2023-03-02T00:07:18.285Z,2.00
2023-03-02T00:09:45.727Z,2.00
2023-03-02T00:12:13.731Z,2.00
2023-03-02T00:14:40.866Z,2.00
2023-03-02T00:17:08.079Z,2.00
2023-03-02T00:19:36.566Z,2.00
2023-03-02T00:22:04.251Z,2.00
2023-03-02T00:24:31.457Z,2.00
2023-03-02T00:26:58.597Z,1.90
2023-03-02T00:29:25.845Z,1.90
2023-03-02T00:31:53.097Z,1.80
2023-03-02T00:34:20.443Z,1.80
2023-03-02T00:36:49.487Z,1.80
2023-03-02T00:39:20.134Z,1.80
2023-03-02T00:41:48.603Z,1.80
2023-03-02T00:44:17.658Z,1.70
2023-03-02T00:46:45.786Z,1.80
2023-03-02T00:49:13.350Z,1.80
2023-03-02T00:51:40.455Z,1.80
2023-03-02T00:54:07.669Z,1.80
2023-03-02T00:56:35.048Z,1.80
2023-03-02T00:59:36.014Z,1.80
2023-03-02T01:02:14.856Z,1.80
2023-03-02T01:04:43.925Z,1.90
2023-03-02T01:07:15.690Z,1.90
2023-03-02T01:09:44.738Z,1.90
2023-03-02T01:12:12.687Z,1.90
2023-03-02T01:14:44.925Z,1.90
2023-03-02T01:17:13.236Z,1.90
2023-03-02T01:19:41.500Z,1.90
2023-03-02T01:22:09.466Z,1.90
2023-03-02T01:24:36.634Z,1.90
2023-03-02T01:27:04.118Z,1.90
2023-03-02T01:29:31.417Z,1.90
2023-03-02T01:31:59.824Z,1.90
2023-03-02T01:34:27.077Z,1.90
2023-03-02T01:36:54.167Z,1.90
2023-03-02T01:39:22.524Z,1.90
2023-03-02T01:41:51.922Z,1.90
2023-03-02T01:44:52.023Z,1.90
2023-03-02T01:47:37.176Z,1.80
2023-03-02T01:50:24.977Z,1.80
2023-03-02T01:52:56.761Z,1.80
2023-03-02T01:55:29.563Z,1.80
2023-03-02T01:57:58.170Z,1.80
2023-03-02T02:00:29.528Z,1.80
2023-03-02T02:03:08.942Z,1.70
2023-03-02T02:05:43.036Z,1.80
2023-03-02T02:08:10.855Z,1.80
2023-03-02T02:10:39.904Z,1.70
2023-03-02T02:13:11.131Z,1.70
2023-03-02T02:15:39.103Z,1.70
2023-03-02T02:18:06.533Z,1.70
2023-03-02T02:20:45.270Z,1.70
2023-03-02T02:23:39.992Z,1.70
2023-03-02T02:26:44.942Z,1.70
2023-03-02T02:29:25.364Z,1.70
2023-03-02T02:32:02.691Z,1.70
2023-03-02T02:34:38.021Z,1.70
2023-03-02T02:37:19.379Z,1.70
2023-03-02T02:39:49.313Z,1.70
2023-03-02T02:42:33.279Z,1.70
2023-03-02T02:45:07.171Z,1.70
2023-03-02T02:47:35.187Z,1.70
2023-03-02T02:50:02.532Z,1.60
2023-03-02T02:52:30.201Z,1.60
2023-03-02T02:54:59.167Z,1.70
2023-03-02T02:57:29.884Z,1.70
2023-03-02T03:00:01.532Z,1.60
2023-03-02T03:02:39.908Z,1.40
2023-03-02T03:05:14.122Z,1.40
2023-03-02T03:07:41.423Z,1.40
2023-03-02T03:10:23.757Z,1.30
2023-03-02T03:12:51.991Z,1.30
2023-03-02T03:15:21.165Z,1.30
2023-03-02T03:17:58.209Z,1.30
2023-03-02T03:20:28.414Z,1.40
2023-03-02T03:22:55.710Z,1.40
2023-03-02T03:25:26.477Z,1.50
2023-03-02T03:27:54.996Z,1.60
2023-03-02T03:30:22.653Z,1.60
2023-03-02T03:32:50.175Z,1.60
2023-03-02T03:35:17.678Z,1.60
2023-03-02T03:37:45.788Z,1.60
2023-03-02T03:40:15.576Z,1.60
2023-03-02T03:42:44.703Z,1.70
2023-03-02T03:45:12.873Z,1.70
2023-03-02T03:47:41.378Z,1.70
2023-03-02T03:50:10.604Z,1.70
2023-03-02T03:52:38.362Z,1.70
2023-03-02T03:55:23.336Z,1.70
2023-03-02T03:57:51.046Z,1.70
2023-03-02T04:00:18.941Z,1.70
2023-03-02T04:02:54.853Z,1.70
2023-03-02T04:05:23.070Z,1.70
2023-03-02T04:07:53.272Z,1.70
2023-03-02T04:10:21.873Z,1.70
2023-03-02T04:12:51.267Z,1.70
2023-03-02T04:15:18.850Z,1.70
2023-03-02T04:17:47.960Z,1.60
2023-03-02T04:20:19.548Z,1.70
2023-03-02T04:22:52.489Z,1.70
2023-03-02T04:25:24.280Z,1.70
2023-03-02T04:27:54.983Z,1.70
2023-03-02T04:30:26.199Z,1.70
2023-03-02T04:32:54.637Z,1.60
2023-03-02T04:35:22.611Z,1.60
2023-03-02T04:37:49.759Z,1.70
2023-03-02T04:40:17.608Z,1.70
2023-03-02T04:42:44.804Z,1.70
2023-03-02T04:45:13.437Z,1.70
2023-03-02T04:47:41.289Z,1.70
2023-03-02T04:50:11.237Z,1.70
2023-03-02T04:52:38.365Z,1.70
2023-03-02T04:55:06.869Z,1.80
2023-03-02T04:57:34.069Z,1.70
2023-03-02T05:00:01.160Z,1.70
2023-03-02T05:02:28.309Z,1.70
2023-03-02T05:04:55.636Z,1.70
2023-03-02T05:07:22.859Z,1.70
2023-03-02T05:09:49.887Z,1.70
2023-03-02T05:12:19.155Z,1.70
2023-03-02T05:14:46.325Z,1.70
2023-03-02T05:17:13.665Z,1.70
2023-03-02T05:19:40.772Z,1.70
2023-03-02T05:22:07.877Z,1.70
2023-03-02T05:24:35.681Z,1.70
2023-03-02T05:27:02.876Z,1.60
2023-03-02T05:29:29.996Z,0.70
2023-03-02T05:31:57.302Z,1.60
2023-03-02T05:34:24.449Z,1.70
2023-03-02T05:36:51.560Z,1.60
2023-03-02T05:39:18.592Z,1.60
2023-03-02T05:41:45.728Z,1.60
2023-03-02T05:44:12.972Z,1.60
2023-03-02T05:46:40.583Z,1.60
2023-03-02T05:49:07.992Z,1.60
2023-03-02T05:51:35.117Z,1.60
2023-03-02T05:54:02.456Z,1.60
2023-03-02T05:56:30.236Z,1.60
2023-03-02T05:58:57.373Z,1.60
2023-03-02T06:01:24.480Z,1.60
2023-03-02T06:03:51.598Z,1.60
2023-03-02T06:06:18.771Z,1.60
2023-03-02T06:08:45.938Z,1.60
2023-03-02T06:11:13.117Z,1.60
2023-03-02T06:13:40.657Z,1.60
2023-03-02T06:16:09.030Z,1.60
2023-03-02T06:18:41.270Z,1.60
2023-03-02T06:21:09.130Z,1.60
2023-03-02T06:23:36.724Z,1.60
2023-03-02T06:26:12.178Z,1.70
2023-03-02T06:28:52.268Z,1.70
2023-03-02T06:31:22.100Z,1.70
2023-03-02T06:33:49.960Z,1.70
2023-03-02T06:36:17.721Z,1.70
2023-03-02T06:38:45.330Z,1.70
2023-03-02T06:41:12.916Z,1.70
2023-03-02T06:43:40.272Z,1.70
2023-03-02T06:46:08.025Z,1.70
2023-03-02T06:48:35.393Z,1.70
2023-03-02T06:51:02.934Z,1.60
2023-03-02T06:53:30.322Z,1.50
2023-03-02T06:55:57.660Z,1.40
2023-03-02T06:58:25.210Z,1.50
2023-03-02T07:00:52.556Z,1.40
2023-03-02T07:03:20.214Z,1.50
2023-03-02T07:05:49.115Z,1.50
2023-03-02T07:08:16.528Z,1.40
2023-03-02T07:10:43.901Z,1.40
2023-03-02T07:13:11.355Z,1.40
2023-03-02T07:15:41.973Z,1.30
2023-03-02T07:18:09.530Z,1.40
2023-03-02T07:20:36.984Z,1.30
2023-03-02T07:23:05.837Z,1.30
2023-03-02T07:25:33.586Z,1.20
2023-03-02T07:28:00.950Z,1.20
2023-03-02T07:30:28.400Z,1.20
2023-03-02T07:32:55.691Z,1.20
2023-03-02T07:35:23.178Z,1.30
2023-03-02T07:37:52.757Z,1.30
2023-03-02T07:40:20.278Z,1.30
2023-03-02T07:42:47.958Z,1.30
2023-03-02T07:45:17.037Z,1.40
2023-03-02T07:47:44.630Z,1.40
2023-03-02T07:50:12.537Z,1.50
2023-03-02T07:52:39.937Z,1.30
2023-03-02T07:55:08.478Z,1.10
2023-03-02T07:57:36.407Z,1.10
2023-03-02T08:00:05.500Z,1.20
2023-03-02T08:02:42.937Z,1.20
2023-03-02T08:05:12.385Z,1.30
2023-03-02T08:07:40.973Z,1.30
2023-03-02T08:10:09.466Z,1.40
2023-03-02T08:12:36.844Z,1.30
2023-03-02T08:15:05.161Z,1.30
2023-03-02T08:17:32.758Z,1.40
2023-03-02T08:20:00.222Z,1.30
2023-03-02T08:22:27.786Z,1.20
2023-03-02T08:24:55.282Z,1.20
2023-03-02T08:27:23.059Z,1.20
2023-03-02T08:30:00.539Z,1.30
2023-03-02T08:32:35.556Z,1.40
2023-03-02T08:35:03.986Z,1.50
2023-03-02T08:37:31.758Z,1.50
2023-03-02T08:39:59.262Z,1.30
2023-03-02T08:42:26.852Z,1.20
2023-03-02T08:44:54.190Z,1.10
2023-03-02T08:47:21.514Z,1.10
2023-03-02T08:49:50.570Z,1.20
2023-03-02T08:52:18.444Z,1.40
2023-03-02T08:54:46.548Z,1.40
2023-03-02T08:57:14.022Z,1.50
2023-03-02T08:59:41.660Z,1.60
2023-03-02T09:02:12.225Z,1.70
2023-03-02T09:04:39.934Z,1.90
2023-03-02T09:07:07.719Z,2.10
2023-03-02T09:09:35.304Z,2.20
2023-03-02T09:12:04.028Z,2.30
2023-03-02T09:14:31.529Z,2.30
2023-03-02T09:16:59.181Z,2.40
2023-03-02T09:19:26.955Z,2.50
2023-03-02T09:21:54.437Z,2.60
2023-03-02T09:24:21.980Z,2.60
2023-03-02T09:26:49.607Z,2.70
2023-03-02T09:29:17.101Z,2.70
2023-03-02T09:31:44.541Z,2.80
2023-03-02T09:34:12.389Z,2.80
2023-03-02T09:36:39.792Z,2.80
2023-03-02T09:39:12.297Z,2.80
2023-03-02T09:42:04.384Z,2.80
2023-03-02T09:45:02.491Z,2.90
2023-03-02T09:48:30.470Z,2.90
2023-03-02T09:51:57.849Z,2.90
2023-03-02T09:55:19.103Z,2.90
2023-03-02T09:57:47.729Z,2.90
2023-03-02T10:00:30.936Z,2.90
2023-03-02T10:03:16.490Z,3.00
2023-03-02T10:05:56.287Z,3.10
2023-03-02T10:08:29.892Z,3.10
2023-03-02T10:11:16.890Z,3.10
2023-03-02T10:13:56.608Z,3.10
2023-03-02T10:16:38.688Z,3.10
2023-03-02T10:19:26.495Z,3.10
2023-03-02T10:22:30.243Z,3.10
2023-03-02T10:25:14.523Z,3.10
2023-03-02T10:27:48.073Z,2.90
2023-03-02T10:30:32.102Z,2.80
2023-03-02T10:33:17.657Z,2.80
2023-03-02T10:35:52.781Z,2.90
2023-03-02T10:38:25.320Z,3.00
2023-03-02T10:41:01.400Z,3.10
2023-03-02T10:43:51.849Z,3.20
2023-03-02T10:46:19.473Z,3.20
2023-03-02T10:48:56.311Z,3.20
2023-03-02T10:51:23.792Z,3.30
2023-03-02T10:54:05.569Z,3.40
2023-03-02T10:56:34.405Z,3.50
2023-03-02T10:59:13.510Z,3.40
2023-03-02T11:01:41.006Z,3.40
2023-03-02T11:04:15.716Z,3.40
2023-03-02T11:06:43.221Z,3.40
2023-03-02T11:09:15.128Z,3.50
2023-03-02T11:11:54.704Z,3.50
2023-03-02T11:14:25.566Z,3.50
2023-03-02T11:16:53.848Z,3.60
2023-03-02T11:19:35.564Z,3.60
2023-03-02T11:22:38.209Z,3.60
2023-03-02T11:25:23.886Z,3.60
2023-03-02T11:28:03.410Z,3.30
2023-03-02T11:30:34.468Z,3.20
2023-03-02T11:33:56.101Z,3.20
2023-03-02T11:36:40.270Z,3.30
2023-03-02T11:39:17.992Z,3.40
2023-03-02T11:41:45.762Z,3.40
2023-03-02T11:44:20.640Z,3.40
2023-03-02T11:47:00.624Z,3.50
2023-03-02T11:49:48.678Z,3.60
2023-03-02T11:52:26.928Z,3.60
2023-03-02T11:55:16.565Z,3.70
2023-03-02T11:57:55.595Z,3.60
2023-03-02T12:00:44.602Z,3.70
2023-03-02T12:03:15.035Z,3.70
2023-03-02T12:05:47.666Z,3.60
2023-03-02T12:08:21.336Z,3.60
2023-03-02T12:11:24.155Z,3.40
2023-03-02T12:14:06.656Z,3.10
2023-03-02T12:16:41.387Z,3.00
2023-03-02T12:19:17.805Z,3.00
2023-03-02T12:22:09.282Z,3.00
2023-03-02T12:24:40.451Z,3.20
2023-03-02T12:27:13.635Z,3.30
2023-03-02T12:29:43.466Z,3.40
2023-03-02T12:32:25.961Z,3.50
2023-03-02T12:35:08.757Z,3.50
2023-03-02T12:38:01.813Z,3.60
2023-03-02T12:41:31.828Z,3.60
2023-03-02T12:44:34.422Z,3.70
2023-03-02T12:47:03.100Z,3.80
2023-03-02T12:50:05.884Z,3.80
2023-03-02T12:52:36.585Z,3.80
2023-03-02T12:55:10.035Z,3.80
2023-03-02T12:57:54.138Z,3.80
2023-03-02T13:00:27.520Z,3.80
2023-03-02T13:02:57.327Z,3.70
2023-03-02T13:05:29.779Z,3.30
2023-03-02T13:08:01.651Z,3.10
2023-03-02T13:10:41.235Z,3.10
2023-03-02T13:13:21.015Z,3.10
2023-03-02T13:16:23.822Z,2.90
2023-03-02T13:18:57.149Z,2.70
2023-03-02T13:21:37.776Z,2.70
2023-03-02T13:24:36.039Z,2.70
2023-03-02T13:27:16.953Z,2.60
2023-03-02T13:29:45.900Z,2.70
2023-03-02T13:32:19.195Z,2.90
2023-03-02T13:34:50.309Z,3.10
2023-03-02T13:37:39.379Z,3.20
2023-03-02T13:40:42.868Z,3.30
2023-03-02T13:43:39.364Z,3.30
2023-03-02T13:46:15.813Z,3.30
2023-03-02T13:49:12.007Z,3.30
2023-03-02T13:51:48.863Z,3.20
2023-03-02T13:54:28.951Z,3.30
2023-03-02T13:56:59.153Z,3.30
2023-03-02T13:59:27.005Z,3.30
2023-03-02T14:01:54.761Z,3.30
2023-03-02T14:04:23.668Z,3.30
2023-03-02T14:06:54.067Z,3.40
2023-03-02T14:09:22.237Z,3.50
2023-03-02T14:11:53.610Z,3.50
2023-03-02T14:14:26.709Z,3.50
2023-03-02T14:16:54.201Z,3.50
2023-03-02T14:19:21.793Z,3.20
2023-03-02T14:21:49.409Z,3.10
2023-03-02T14:24:16.845Z,3.10
2023-03-02T14:26:48.061Z,3.00
2023-03-02T14:29:32.420Z,2.70
2023-03-02T14:32:06.755Z,2.60
2023-03-02T14:34:37.274Z,2.50
2023-03-02T14:37:10.721Z,2.50
2023-03-02T14:39:54.178Z,2.60
2023-03-02T14:42:23.540Z,2.70
2023-03-02T14:44:52.303Z,2.70
2023-03-02T14:47:19.932Z,2.80
2023-03-02T14:49:49.442Z,2.70
2023-03-02T14:52:44.712Z,2.60
2023-03-02T14:55:31.315Z,2.80
2023-03-02T14:58:17.288Z,2.70
2023-03-02T15:00:45.383Z,2.60
2023-03-02T15:03:24.587Z,2.50
2023-03-02T15:06:00.920Z,2.40
2023-03-02T15:08:30.183Z,2.40
2023-03-02T15:10:58.122Z,2.50
2023-03-02T15:13:25.556Z,2.50
2023-03-02T15:15:53.148Z,2.70
2023-03-02T15:18:20.530Z,2.80
2023-03-02T15:20:48.258Z,2.90
2023-03-02T15:23:15.706Z,3.10
2023-03-02T15:25:43.151Z,3.10
2023-03-02T15:28:10.807Z,3.00
2023-03-02T15:30:38.620Z,3.10
2023-03-02T15:33:06.589Z,3.10
2023-03-02T15:35:35.291Z,3.10
2023-03-02T15:38:04.616Z,3.10
2023-03-02T15:40:33.833Z,3.10
2023-03-02T15:43:01.467Z,3.10
2023-03-02T15:45:29.765Z,3.10
2023-03-02T15:47:57.623Z,3.10
2023-03-02T15:50:25.167Z,3.00
2023-03-02T15:52:52.581Z,2.90
2023-03-02T15:55:20.082Z,3.00
2023-03-02T15:57:47.797Z,3.00
2023-03-02T16:00:16.146Z,3.00
2023-03-02T16:02:43.724Z,3.00
2023-03-02T16:05:11.135Z,2.90
2023-03-02T16:07:38.623Z,2.90
2023-03-02T16:10:07.259Z,2.90
2023-03-02T16:12:37.576Z,2.80
2023-03-02T16:15:05.594Z,2.80
2023-03-02T16:17:33.128Z,2.80
2023-03-02T16:20:00.722Z,2.80
2023-03-02T16:22:28.343Z,2.80
2023-03-02T16:24:55.896Z,2.80
2023-03-02T16:27:23.438Z,2.80
2023-03-02T16:29:51.094Z,2.80
2023-03-02T16:32:19.469Z,2.80
2023-03-02T16:34:47.148Z,2.80
2023-03-02T16:37:14.846Z,2.80
2023-03-02T16:39:42.596Z,2.80
2023-03-02T16:42:09.982Z,2.70
2023-03-02T16:44:38.062Z,2.60
2023-03-02T16:47:05.568Z,2.60
2023-03-02T16:49:33.053Z,2.50
2023-03-02T16:52:00.512Z,2.40
2023-03-02T16:54:28.978Z,2.40
2023-03-02T16:56:56.444Z,2.30
2023-03-02T16:59:23.903Z,2.40
2023-03-02T17:01:51.346Z,2.30
2023-03-02T17:04:19.004Z,2.30
2023-03-02T17:07:03.410Z,2.20
2023-03-02T17:09:33.787Z,2.00
2023-03-02T17:12:01.214Z,1.90
2023-03-02T17:14:29.148Z,1.90
2023-03-02T17:16:57.002Z,1.80
2023-03-02T17:19:26.869Z,1.80
2023-03-02T17:21:58.413Z,1.80
2023-03-02T17:24:27.437Z,1.80
2023-03-02T17:26:55.657Z,1.80
2023-03-02T17:29:25.844Z,1.70
2023-03-02T17:31:53.498Z,1.60
2023-03-02T17:34:21.245Z,2.20
2023-03-02T17:36:48.770Z,1.50
2023-03-02T17:39:16.443Z,1.40
2023-03-02T17:41:43.983Z,1.40
2023-03-02T17:44:11.795Z,1.50
2023-03-02T17:46:39.502Z,1.50
2023-03-02T17:49:07.060Z,1.50
2023-03-02T17:51:34.688Z,1.50
2023-03-02T17:54:02.273Z,1.60
2023-03-02T17:56:30.436Z,1.60
2023-03-02T17:59:01.925Z,1.60
2023-03-02T18:01:30.002Z,1.60
2023-03-02T18:03:58.064Z,1.60
2023-03-02T18:06:25.703Z,1.60
2023-03-02T18:08:53.374Z,1.60
2023-03-02T18:11:23.586Z,1.60
2023-03-02T18:13:56.225Z,1.70
2023-03-02T18:16:26.718Z,1.70
2023-03-02T18:18:55.019Z,1.60
2023-03-02T18:21:23.483Z,1.40
2023-03-02T18:23:51.073Z,1.10
2023-03-02T18:26:19.347Z,1.10
2023-03-02T18:28:46.865Z,1.20
2023-03-02T18:31:18.996Z,1.20
2023-03-02T18:34:03.443Z,1.20
2023-03-02T18:36:30.994Z,1.10
2023-03-02T18:38:58.592Z,0.90
2023-03-02T18:41:25.854Z,0.80
2023-03-02T18:43:53.391Z,0.80
2023-03-02T18:46:26.689Z,0.80
2023-03-02T18:48:55.506Z,0.90
2023-03-02T18:51:25.073Z,0.90
2023-03-02T18:53:53.433Z,0.80
2023-03-02T18:56:22.126Z,0.80
2023-03-02T18:58:49.766Z,0.80
2023-03-02T19:01:18.446Z,0.80
2023-03-02T19:03:46.181Z,0.80
2023-03-02T19:06:14.240Z,0.80
2023-03-02T19:08:41.939Z,0.70
2023-03-02T19:11:11.779Z,0.70
2023-03-02T19:13:39.260Z,0.60
2023-03-02T19:16:07.320Z,0.60
2023-03-02T19:18:34.911Z,0.70
2023-03-02T19:21:04.902Z,0.70
2023-03-02T19:23:33.141Z,0.60
2023-03-02T19:26:00.998Z,0.70
2023-03-02T19:28:28.417Z,0.70
2023-03-02T19:30:56.205Z,0.80
2023-03-02T19:33:24.848Z,0.80
2023-03-02T19:35:52.451Z,0.80
2023-03-02T19:38:19.989Z,0.80
2023-03-02T19:40:47.327Z,0.70
2023-03-02T19:43:14.894Z,0.80
2023-03-02T19:45:42.300Z,0.70
2023-03-02T19:48:13.782Z,0.70
2023-03-02T19:50:41.513Z,0.60
2023-03-02T19:53:09.985Z,0.60
2023-03-02T19:55:37.656Z,0.60
2023-03-02T19:58:07.805Z,0.60
2023-03-02T20:00:38.267Z,0.60
2023-03-02T20:03:08.522Z,0.50
2023-03-02T20:05:38.195Z,0.50
2023-03-02T20:08:07.126Z,0.60
2023-03-02T20:10:46.672Z,0.70
2023-03-02T20:13:14.399Z,0.80
2023-03-02T20:15:45.380Z,0.90
2023-03-02T20:18:17.619Z,0.90
2023-03-02T20:20:45.732Z,0.90
2023-03-02T20:23:15.043Z,1.00
2023-03-02T20:25:42.456Z,1.00
2023-03-02T20:28:12.811Z,0.90
2023-03-02T20:30:51.777Z,0.90
2023-03-02T20:33:22.953Z,0.90
2023-03-02T20:35:52.033Z,0.90
2023-03-02T20:38:32.689Z,0.80
2023-03-02T20:41:01.411Z,0.70
2023-03-02T20:43:29.786Z,0.80
2023-03-02T20:45:58.355Z,0.90
2023-03-02T20:48:26.405Z,0.80
2023-03-02T20:50:54.812Z,0.90
2023-03-02T20:53:23.451Z,0.80
2023-03-02T20:55:50.845Z,0.70
2023-03-02T20:58:18.477Z,0.70
2023-03-02T21:00:46.374Z,0.60
2023-03-02T21:03:14.746Z,0.60
2023-03-02T21:05:43.253Z,0.50
2023-03-02T21:08:14.805Z,0.50
2023-03-02T21:10:43.915Z,0.60
2023-03-02T21:13:12.180Z,0.50
2023-03-02T21:15:41.073Z,0.60
2023-03-02T21:18:08.714Z,0.60
2023-03-02T21:20:36.076Z,0.60
2023-03-02T21:23:04.282Z,0.60
2023-03-02T21:25:32.377Z,0.60
2023-03-02T21:28:00.203Z,0.60
2023-03-02T21:30:33.980Z,0.50
2023-03-02T21:33:02.731Z,0.50
2023-03-02T21:35:34.950Z,0.50
2023-03-02T21:38:04.864Z,0.60
2023-03-02T21:40:38.006Z,0.60
2023-03-02T21:43:06.745Z,0.60
2023-03-02T21:45:36.063Z,0.60
2023-03-02T21:48:05.177Z,0.60
2023-03-02T21:50:36.278Z,0.50
2023-03-02T21:53:04.330Z,0.60
2023-03-02T21:55:32.805Z,0.70
2023-03-02T21:58:01.398Z,0.70
2023-03-02T22:00:35.837Z,0.70
2023-03-02T22:03:03.768Z,0.70
2023-03-02T22:05:33.348Z,0.70
2023-03-02T22:08:01.048Z,0.70
2023-03-02T22:10:37.113Z,0.70
2023-03-02T22:13:14.041Z,0.80
2023-03-02T22:15:42.201Z,0.80
2023-03-02T22:18:22.255Z,0.80
2023-03-02T22:20:54.142Z,0.80
2023-03-02T22:23:26.236Z,0.70
2023-03-02T22:26:01.845Z,0.70
2023-03-02T22:28:29.583Z,0.80
2023-03-02T22:31:00.862Z,0.80
2023-03-02T22:33:29.649Z,0.90
2023-03-02T22:36:11.402Z,0.80
2023-03-02T22:38:39.151Z,0.80
2023-03-02T22:41:14.417Z,0.80
2023-03-02T22:43:42.292Z,0.90
2023-03-02T22:46:16.119Z,0.80
2023-03-02T22:48:52.245Z,0.70
2023-03-02T22:51:28.463Z,0.70
2023-03-02T22:53:59.355Z,0.70
2023-03-02T22:56:32.570Z,0.70
2023-03-02T22:59:21.876Z,0.80
2023-03-02T23:01:50.075Z,0.80
2023-03-02T23:04:27.497Z,0.90
2023-03-02T23:07:00.671Z,0.80
2023-03-02T23:09:34.879Z,0.70
2023-03-02T23:12:14.392Z,0.70
2023-03-02T23:14:52.419Z,0.70
2023-03-02T23:17:31.928Z,0.60
2023-03-02T23:19:59.635Z,0.50
2023-03-02T23:22:29.786Z,0.40
2023-03-02T23:24:57.352Z,0.30
2023-03-02T23:27:25.435Z,0.30
2023-03-02T23:29:52.845Z,0.30
2023-03-02T23:32:20.522Z,0.40
2023-03-02T23:34:48.072Z,0.40
2023-03-02T23:37:15.468Z,0.50
2023-03-02T23:39:45.651Z,0.60
2023-03-02T23:42:13.431Z,0.60
2023-03-02T23:44:40.816Z,0.60
2023-03-02T23:47:08.134Z,0.60
2023-03-02T23:49:35.521Z,0.60
2023-03-02T23:52:03.676Z,0.60
2023-03-02T23:54:31.136Z,0.60
2023-03-02T23:56:58.554Z,0.50
2023-03-02T23:59:26.022Z,0.40
